Golden Triangle Regional Airport Columbus, W Point, Starkville US
ICAO: KGTR
IATA: GTR
Category: Medium
Scheduled Services: Yes

Elevation: 264 ft
TransAlt. 18000 ft.

Airport Communications:
COLUMBUS APP/DEP:135.6
ATIS:126.375
AWOS 3:126.375
COLUMBUS CLNC DEL:126.25
CTAF:120.025
GND/CLNC DEL:135.375
TWR:120.025
UNICOM:122.8

KGTR Zoom In..

If you have problems with the map follow the link
https://www.worldairports.se/pages/airport.php?
ICAO=KGTR

Runways:

(A) RW 18 length 8003 ft width 150 ft
ILS 110.70 / hdg 182

(B) RW 36 length 8003 ft width 150 ft
ILS 111.15 / hdg 2

Location; KGTR
Day. 22 / Time. 11.56 Zulu
* Altimeter: 30.27
* Temperature: 03° c. 37.4°f.
* Wind from: 020° Speed 03 kn.
Dewpoint: 02° c.
Visibility: 10 Statute Miles.
Clouds: Clear (automated report).

KGTR 221156Z 02003KT 10SM CLR 03/02 A3027 RMK AO2 SLP254 T00280022 10044 20022 51014


Wind From 020°
Speed 03 kn.

 
 
jpsmedia.com for Web Design worldairports.se 2018   terms of use